CSCL Fuzhou — ELYA7 — position and weather

sailwx.info

Track history (hours):
 
Tides and Currents Weather Stations Pressure Air Temp Water Temp Dewpoint Dewpoint Depression Visibility Wind Speed Wind Dir Waves Ship Positions

CSCL Fuzhou

Last reported at 2015-Aug-31 13:33 UTC. Time now 2015-Aug-31 23:47 UTC.
Position N 03°11' E 100°40'.

Length 207.4 m; beam 29.8 m; draft 11.4 m.

Type: Ship. MMSI: 636016483.

Date/timePositionNaut miles runAvg speedWind from/ knotsBaromVisibWave heightAir tempDewpointWater temp
2015-Aug-31 13:33N 03°11' E 100°40'1414.6
2015-Aug-31 12:33N 03°01' E 100°50'1312.9
2015-Aug-31 11:33N 02°51' E 100°59'1511.9
2015-Aug-31 10:18N 02°44' E 101°12'912.6
2015-Aug-31 09:33N 02°40' E 101°20'2914.6
2015-Aug-31 07:33N 02°23' E 101°44'13613.6
2015-Aug-30 21:33N 01°12' E 103°40'8 7.5
2015-Aug-30 20:33N 01°17' E 103°46'0 0.0
2015-Aug-30 19:33N 01°17' E 103°46'0 0.0
2015-Aug-30 18:26N 01°17' E 103°46'0 0.0
2015-Aug-30 17:26N 01°17' E 103°46'0 0.0
2015-Aug-30 16:29N 01°17' E 103°46'0 0.0
2015-Aug-30 15:20N 01°17' E 103°46'0 0.0
2015-Aug-30 14:32N 01°17' E 103°46'0 0.0
2015-Aug-30 13:32N 01°17' E 103°46'0 0.0
2015-Aug-30 12:32N 01°17' E 103°46'0 0.0
2015-Aug-30 11:32N 01°17' E 103°46'0 0.0
2015-Aug-30 10:32N 01°17' E 103°46'0 0.0
2015-Aug-30 09:26N 01°17' E 103°46'0 0.0
2015-Aug-30 08:32N 01°17' E 103°46'0 0.0
2015-Aug-30 07:32N 01°17' E 103°46'0 0.0
2015-Aug-30 06:32N 01°17' E 103°46'0 0.5
2015-Aug-30 05:33N 01°17' E 103°45'3 2.5
2015-Aug-30 04:34N 01°15' E 103°45'9 9.2
2015-Aug-30 03:33N 01°13' E 103°36'4 0.4
2015-Aug-29 15:31N 01°15' E 103°32'1 0.0
2015-Aug-28 15:25N 01°16' E 103°33'8 5.6
2015-Aug-28 14:03N 01°12' E 103°26'1 0.8
2015-Aug-28 13:13N 01°12' E 103°27'126 9.9
2015-Aug-28 00:30N 02°22' E 101°41'2513.0
2015-Aug-27 22:33N 02°37' E 101°21'19 9.8
2015-Aug-27 20:33N 02°56' E 101°17'1 0.3
2015-Aug-27 17:22N 02°56' E 101°18'0 0.0
2015-Aug-27 13:22N 02°56' E 101°18'0 0.0
2015-Aug-27 12:31N 02°56' E 101°18'0 0.0
2015-Aug-27 10:31N 02°56' E 101°18'0 0.0
2015-Aug-27 07:28N 02°56' E 101°18'0 0.0
2015-Aug-27 05:25N 02°56' E 101°18'0 0.0
2015-Aug-27 03:33N 02°56' E 101°18'9 8.7
2015-Aug-27 02:34N 02°48' E 101°15'2 0.9
2015-Aug-27 00:33N 02°47' E 101°16'1 0.2
2015-Aug-26 21:19N 02°46' E 101°17'0 0.0
2015-Aug-26 20:28N 02°46' E 101°17'0 0.0
2015-Aug-26 17:28N 02°46' E 101°17'0 0.0
2015-Aug-26 15:31N 02°46' E 101°17'0 0.0
2015-Aug-26 13:25N 02°46' E 101°17'0 0.1
2015-Aug-26 08:28N 02°46' E 101°17'0 0.0
2015-Aug-26 07:22N 02°46' E 101°17'0 0.1
2015-Aug-26 05:31N 02°47' E 101°17'0 0.1
2015-Aug-26 04:28N 02°47' E 101°17'0 0.1
2015-Aug-26 03:31N 02°46' E 101°17'0 0.0
2015-Aug-25 23:31N 02°46' E 101°17'0 0.0
2015-Aug-25 20:31N 02°47' E 101°17'0 0.1
2015-Aug-25 18:31N 02°47' E 101°17'0 0.2
2015-Aug-25 17:31N 02°47' E 101°17'0 0.0
2015-Aug-25 11:31N 02°46' E 101°17'0 0.0
2015-Aug-25 08:31N 02°47' E 101°17'  
Track history (hours):
 
Tides and Currents Weather Stations Pressure Air Temp Water Temp Dewpoint Dewpoint Depression Visibility Wind Speed Wind Dir Waves Ship Positions

CSCL Fuzhou

Last reported at 2015-Aug-31 13:33 UTC. Time now 2015-Aug-31 23:47 UTC.
Position N 03°11' E 100°40'.

Length 207.4 m; beam 29.8 m; draft 11.4 m.

Type: Ship. MMSI: 636016483.

Date/timePositionNaut miles runAvg speedWind from/ knotsBaromVisibWave heightAir tempDewpointWater temp
2015-Aug-31 13:33N 03°11' E 100°40'1414.6
2015-Aug-31 12:33N 03°01' E 100°50'1312.9
2015-Aug-31 11:33N 02°51' E 100°59'1511.9
2015-Aug-31 10:18N 02°44' E 101°12'912.6
2015-Aug-31 09:33N 02°40' E 101°20'2914.6
2015-Aug-31 07:33N 02°23' E 101°44'13613.6
2015-Aug-30 21:33N 01°12' E 103°40'8 7.5
2015-Aug-30 20:33N 01°17' E 103°46'0 0.0
2015-Aug-30 19:33N 01°17' E 103°46'0 0.0
2015-Aug-30 18:26N 01°17' E 103°46'0 0.0
2015-Aug-30 17:26N 01°17' E 103°46'0 0.0
2015-Aug-30 16:29N 01°17' E 103°46'0 0.0
2015-Aug-30 15:20N 01°17' E 103°46'0 0.0
2015-Aug-30 14:32N 01°17' E 103°46'0 0.0
2015-Aug-30 13:32N 01°17' E 103°46'0 0.0
2015-Aug-30 12:32N 01°17' E 103°46'0 0.0
2015-Aug-30 11:32N 01°17' E 103°46'0 0.0
2015-Aug-30 10:32N 01°17' E 103°46'0 0.0
2015-Aug-30 09:26N 01°17' E 103°46'0 0.0
2015-Aug-30 08:32N 01°17' E 103°46'0 0.0
2015-Aug-30 07:32N 01°17' E 103°46'0 0.0
2015-Aug-30 06:32N 01°17' E 103°46'0 0.5
2015-Aug-30 05:33N 01°17' E 103°45'3 2.5
2015-Aug-30 04:34N 01°15' E 103°45'9 9.2
2015-Aug-30 03:33N 01°13' E 103°36'4 0.4
2015-Aug-29 15:31N 01°15' E 103°32'1 0.0
2015-Aug-28 15:25N 01°16' E 103°33'8 5.6
2015-Aug-28 14:03N 01°12' E 103°26'1 0.8
2015-Aug-28 13:13N 01°12' E 103°27'126 9.9
2015-Aug-28 00:30N 02°22' E 101°41'2513.0
2015-Aug-27 22:33N 02°37' E 101°21'19 9.8
2015-Aug-27 20:33N 02°56' E 101°17'1 0.3
2015-Aug-27 17:22N 02°56' E 101°18'0 0.0
2015-Aug-27 13:22N 02°56' E 101°18'0 0.0
2015-Aug-27 12:31N 02°56' E 101°18'0 0.0
2015-Aug-27 10:31N 02°56' E 101°18'0 0.0
2015-Aug-27 07:28N 02°56' E 101°18'0 0.0
2015-Aug-27 05:25N 02°56' E 101°18'0 0.0
2015-Aug-27 03:33N 02°56' E 101°18'9 8.7
2015-Aug-27 02:34N 02°48' E 101°15'2 0.9
2015-Aug-27 00:33N 02°47' E 101°16'1 0.2
2015-Aug-26 21:19N 02°46' E 101°17'0 0.0
2015-Aug-26 20:28N 02°46' E 101°17'0 0.0
2015-Aug-26 17:28N 02°46' E 101°17'0 0.0
2015-Aug-26 15:31N 02°46' E 101°17'0 0.0
2015-Aug-26 13:25N 02°46' E 101°17'0 0.1
2015-Aug-26 08:28N 02°46' E 101°17'0 0.0
2015-Aug-26 07:22N 02°46' E 101°17'0 0.1
2015-Aug-26 05:31N 02°47' E 101°17'0 0.1
2015-Aug-26 04:28N 02°47' E 101°17'0 0.1
2015-Aug-26 03:31N 02°46' E 101°17'0 0.0
2015-Aug-25 23:31N 02°46' E 101°17'0 0.0
2015-Aug-25 20:31N 02°47' E 101°17'0 0.1
2015-Aug-25 18:31N 02°47' E 101°17'0 0.2
2015-Aug-25 17:31N 02°47' E 101°17'0 0.0
2015-Aug-25 11:31N 02°46' E 101°17'0 0.0
2015-Aug-25 08:31N 02°47' E 101°17'  

Dump ship's entire track history